RYR40WQ LJLJ-LIEO
Flight info
| Callsign | RYR40WQ |
|---|---|
| Flight time | 1h 15m |
| Altitude | 37000 |
| Route | MODRO1Z MODRO DCT BAXON DCT TAQ DCT TINTO DCT APSUX Q710 GITRI |
| Aircraft | A320/M-SDE3FGHIRWY/L |
Departure
| Time | 2026-04-28 20:33 |
|---|---|
| Airport | Ljubljana Jože Pučnik Airport (LJLJ) |
Arrival
| Time | 2026-04-28 21:49 |
|---|---|
| Airport | Olbia Costa Smeralda Airport (LIEO) |
| Time | Latitude | Longitude | Altitude | Speed | Heading |
|---|---|---|---|---|---|
| 2026-04-28 20:09 | 46.23051 | 14.45373 | 1258 ft | 0 kts | 37° |
| 2026-04-28 20:20 | 46.23051 | 14.45372 | 1258 ft | 0 kts | 37° |
| 2026-04-28 20:24 | 46.23046 | 14.45367 | 1258 ft | 2 kts | 37° |
| 2026-04-28 20:24 | 46.23033 | 14.45352 | 1263 ft | 2 kts | 46° |
| 2026-04-28 20:24 | 46.23021 | 14.45335 | 1269 ft | 2 kts | 72° |
| 2026-04-28 20:24 | 46.23017 | 14.45312 | 1264 ft | 2 kts | 80° |
| 2026-04-28 20:25 | 46.23018 | 14.45289 | 1266 ft | 2 kts | 115° |
| 2026-04-28 20:25 | 46.23021 | 14.45280 | 1264 ft | 0 kts | 130° |
| 2026-04-28 20:27 | 46.23000 | 14.45316 | 1263 ft | 9 kts | 130° |
| 2026-04-28 20:27 | 46.22972 | 14.45363 | 1262 ft | 0 kts | 130° |
| 2026-04-28 20:29 | 46.22971 | 14.45365 | 1261 ft | 2 kts | 130° |
| 2026-04-28 20:29 | 46.22919 | 14.45388 | 1267 ft | 14 kts | 194° |
| 2026-04-28 20:29 | 46.22823 | 14.45353 | 1263 ft | 15 kts | 147° |
| 2026-04-28 20:30 | 46.22735 | 14.45506 | 1264 ft | 25 kts | 127° |
| 2026-04-28 20:30 | 46.22608 | 14.45751 | 1261 ft | 33 kts | 126° |
| 2026-04-28 20:30 | 46.22466 | 14.46032 | 1245 ft | 35 kts | 126° |
| 2026-04-28 20:30 | 46.22316 | 14.46326 | 1241 ft | 32 kts | 127° |
| 2026-04-28 20:31 | 46.22202 | 14.46545 | 1224 ft | 28 kts | 126° |
| 2026-04-28 20:31 | 46.22078 | 14.46789 | 1217 ft | 32 kts | 127° |
| 2026-04-28 20:31 | 46.21945 | 14.47051 | 1213 ft | 34 kts | 126° |
| 2026-04-28 20:31 | 46.21803 | 14.47328 | 1208 ft | 32 kts | 126° |
| 2026-04-28 20:32 | 46.21698 | 14.47533 | 1201 ft | 19 kts | 128° |
| 2026-04-28 20:32 | 46.21588 | 14.47561 | 1197 ft | 19 kts | 216° |
| 2026-04-28 20:32 | 46.21529 | 14.47414 | 1199 ft | 17 kts | 290° |
| 2026-04-28 20:32 | 46.21542 | 14.47381 | 1200 ft | 0 kts | 303° |
| 2026-04-28 20:33 | 46.21614 | 14.47239 | 1207 ft | 53 kts | 307° |
| 2026-04-28 20:33 | 46.21975 | 14.46533 | 1228 ft | 119 kts | 306° |
| 2026-04-28 20:33 | 46.22578 | 14.45370 | 1312 ft | 162 kts | 310° |
| 2026-04-28 20:33 | 46.23241 | 14.44124 | 2022 ft | 157 kts | 308° |
| 2026-04-28 20:34 | 46.23782 | 14.42720 | 2607 ft | 170 kts | 278° |
| 2026-04-28 20:34 | 46.23531 | 14.40989 | 2943 ft | 190 kts | 233° |
| 2026-04-28 20:34 | 46.22441 | 14.39841 | 3256 ft | 206 kts | 192° |
| 2026-04-28 20:34 | 46.20949 | 14.39508 | 3685 ft | 223 kts | 184° |
| 2026-04-28 20:35 | 46.19411 | 14.39235 | 4602 ft | 223 kts | 184° |
| 2026-04-28 20:35 | 46.17863 | 14.38963 | 5458 ft | 225 kts | 185° |
| 2026-04-28 20:35 | 46.16298 | 14.38672 | 6264 ft | 232 kts | 189° |
| 2026-04-28 20:35 | 46.14673 | 14.37949 | 6678 ft | 257 kts | 200° |
| 2026-04-28 20:36 | 46.12961 | 14.37028 | 7244 ft | 272 kts | 201° |
| 2026-04-28 20:36 | 46.11181 | 14.36043 | 8133 ft | 276 kts | 202° |
| 2026-04-28 20:36 | 46.09379 | 14.35040 | 9060 ft | 279 kts | 202° |
| 2026-04-28 20:36 | 46.07556 | 14.34029 | 9996 ft | 282 kts | 202° |
| 2026-04-28 20:37 | 46.05674 | 14.32989 | 10493 ft | 300 kts | 203° |
| 2026-04-28 20:37 | 46.03655 | 14.31872 | 10884 ft | 319 kts | 203° |
| 2026-04-28 20:37 | 46.01551 | 14.30717 | 11560 ft | 326 kts | 203° |
| 2026-04-28 20:37 | 45.99410 | 14.29552 | 12356 ft | 331 kts | 203° |
| 2026-04-28 20:38 | 45.97242 | 14.28381 | 13150 ft | 335 kts | 203° |
| 2026-04-28 20:38 | 45.95049 | 14.27198 | 13933 ft | 339 kts | 203° |
| 2026-04-28 20:38 | 45.92854 | 14.26013 | 14607 ft | 343 kts | 203° |
| 2026-04-28 20:38 | 45.90610 | 14.24800 | 15272 ft | 347 kts | 203° |
| 2026-04-28 20:39 | 45.88335 | 14.23569 | 15945 ft | 351 kts | 203° |
| 2026-04-28 20:39 | 45.86038 | 14.22325 | 16600 ft | 355 kts | 203° |
| 2026-04-28 20:39 | 45.83713 | 14.21068 | 17271 ft | 359 kts | 203° |
| 2026-04-28 20:39 | 45.81362 | 14.19797 | 17930 ft | 363 kts | 203° |
| 2026-04-28 20:40 | 45.79019 | 14.18531 | 18552 ft | 367 kts | 203° |
| 2026-04-28 20:40 | 45.76616 | 14.17237 | 19128 ft | 370 kts | 204° |
| 2026-04-28 20:40 | 45.74196 | 14.15932 | 19699 ft | 373 kts | 204° |
| 2026-04-28 20:40 | 45.71755 | 14.14616 | 20287 ft | 376 kts | 204° |
| 2026-04-28 20:41 | 45.69298 | 14.13293 | 20878 ft | 379 kts | 204° |
| 2026-04-28 20:41 | 45.66811 | 14.11955 | 21435 ft | 383 kts | 204° |
| 2026-04-28 20:41 | 45.64312 | 14.10612 | 22019 ft | 386 kts | 205° |
| 2026-04-28 20:41 | 45.61789 | 14.09255 | 22611 ft | 389 kts | 205° |
| 2026-04-28 20:42 | 45.59275 | 14.07905 | 23201 ft | 392 kts | 205° |
| 2026-04-28 20:42 | 45.56712 | 14.06534 | 23759 ft | 395 kts | 205° |
| 2026-04-28 20:42 | 45.54128 | 14.05154 | 24215 ft | 398 kts | 205° |
| 2026-04-28 20:42 | 45.51523 | 14.03764 | 24667 ft | 401 kts | 205° |
| 2026-04-28 20:43 | 45.48905 | 14.02369 | 25093 ft | 403 kts | 205° |
| 2026-04-28 20:43 | 45.46266 | 14.00964 | 25538 ft | 406 kts | 205° |
| 2026-04-28 20:43 | 45.43604 | 13.99547 | 25970 ft | 409 kts | 205° |
| 2026-04-28 20:43 | 45.40924 | 13.98120 | 26389 ft | 412 kts | 205° |
| 2026-04-28 20:44 | 45.38229 | 13.96689 | 26791 ft | 414 kts | 205° |
| 2026-04-28 20:44 | 45.35520 | 13.95251 | 27180 ft | 417 kts | 205° |
| 2026-04-28 20:44 | 45.32795 | 13.93807 | 27580 ft | 420 kts | 206° |
| 2026-04-28 20:44 | 45.30051 | 13.92353 | 27953 ft | 422 kts | 205° |
| 2026-04-28 20:45 | 45.27324 | 13.90907 | 28332 ft | 425 kts | 205° |
| 2026-04-28 20:45 | 45.24547 | 13.89437 | 28730 ft | 427 kts | 205° |
| 2026-04-28 20:45 | 45.21754 | 13.87962 | 29101 ft | 429 kts | 205° |
| 2026-04-28 20:45 | 45.18941 | 13.86482 | 29465 ft | 432 kts | 205° |
| 2026-04-28 20:46 | 45.16116 | 13.85001 | 29827 ft | 435 kts | 205° |
| 2026-04-28 20:46 | 45.13274 | 13.83510 | 30178 ft | 437 kts | 206° |
| 2026-04-28 20:46 | 45.10419 | 13.82004 | 30451 ft | 439 kts | 205° |
| 2026-04-28 20:46 | 45.07547 | 13.80485 | 30736 ft | 441 kts | 205° |
| 2026-04-28 20:47 | 45.04668 | 13.78968 | 31018 ft | 443 kts | 205° |
| 2026-04-28 20:47 | 45.01808 | 13.77467 | 31286 ft | 445 kts | 205° |
| 2026-04-28 20:47 | 44.98897 | 13.75946 | 31542 ft | 447 kts | 205° |
| 2026-04-28 20:47 | 44.95973 | 13.74422 | 31804 ft | 448 kts | 205° |
| 2026-04-28 20:48 | 44.93044 | 13.72899 | 32143 ft | 447 kts | 205° |
| 2026-04-28 20:48 | 44.90123 | 13.71378 | 32493 ft | 447 kts | 205° |
| 2026-04-28 20:48 | 44.87208 | 13.69856 | 32838 ft | 447 kts | 206° |
| 2026-04-28 20:48 | 44.84291 | 13.68334 | 33178 ft | 446 kts | 206° |
| 2026-04-28 20:49 | 44.81378 | 13.66817 | 33513 ft | 446 kts | 206° |
| 2026-04-28 20:49 | 44.78466 | 13.65302 | 33862 ft | 446 kts | 206° |
| 2026-04-28 20:49 | 44.75559 | 13.63794 | 34171 ft | 446 kts | 205° |
| 2026-04-28 20:49 | 44.72648 | 13.62288 | 34477 ft | 445 kts | 205° |
| 2026-04-28 20:50 | 44.69746 | 13.60789 | 34792 ft | 444 kts | 205° |
| 2026-04-28 20:50 | 44.66849 | 13.59291 | 35095 ft | 443 kts | 205° |
| 2026-04-28 20:50 | 44.63997 | 13.57815 | 35399 ft | 441 kts | 205° |
| 2026-04-28 20:50 | 44.61114 | 13.56326 | 35689 ft | 440 kts | 205° |
| 2026-04-28 20:51 | 44.58240 | 13.54844 | 35972 ft | 440 kts | 205° |
| 2026-04-28 20:51 | 44.55370 | 13.53366 | 36218 ft | 439 kts | 205° |
| 2026-04-28 20:51 | 44.52505 | 13.51893 | 36477 ft | 438 kts | 205° |
| 2026-04-28 20:51 | 44.50609 | 13.50918 | 36653 ft | 437 kts | 205° |
| 2026-04-28 20:52 | 44.46789 | 13.48955 | 36983 ft | 437 kts | 205° |
| 2026-04-28 20:52 | 44.41203 | 13.45900 | 37063 ft | 428 kts | 212° |
| 2026-04-28 20:53 | 44.33511 | 13.39654 | 37059 ft | 425 kts | 215° |
| 2026-04-28 20:53 | 44.28436 | 13.35515 | 37057 ft | 425 kts | 215° |
| 2026-04-28 20:54 | 44.23319 | 13.31343 | 37054 ft | 425 kts | 215° |
| 2026-04-28 20:54 | 44.18202 | 13.27185 | 37042 ft | 425 kts | 214° |
| 2026-04-28 20:55 | 44.13122 | 13.23056 | 37048 ft | 425 kts | 214° |
| 2026-04-28 20:55 | 44.08009 | 13.18912 | 37050 ft | 425 kts | 214° |
| 2026-04-28 20:56 | 44.02899 | 13.14770 | 37053 ft | 425 kts | 214° |
| 2026-04-28 20:56 | 43.97787 | 13.10640 | 37054 ft | 425 kts | 214° |
| 2026-04-28 20:57 | 43.92700 | 13.06541 | 37052 ft | 425 kts | 214° |
| 2026-04-28 20:57 | 43.87567 | 13.02425 | 37051 ft | 425 kts | 214° |
| 2026-04-28 20:58 | 43.82438 | 12.98321 | 37041 ft | 426 kts | 214° |
| 2026-04-28 20:58 | 43.77307 | 12.94214 | 37047 ft | 426 kts | 214° |
| 2026-04-28 20:59 | 43.72203 | 12.90130 | 37063 ft | 426 kts | 214° |
| 2026-04-28 20:59 | 43.67062 | 12.86029 | 37061 ft | 426 kts | 214° |
| 2026-04-28 21:00 | 43.61921 | 12.81934 | 37067 ft | 426 kts | 214° |
| 2026-04-28 21:00 | 43.56778 | 12.77856 | 37073 ft | 426 kts | 214° |
| 2026-04-28 21:01 | 43.51663 | 12.73810 | 37076 ft | 426 kts | 214° |
| 2026-04-28 21:01 | 43.46519 | 12.69741 | 37072 ft | 426 kts | 214° |
| 2026-04-28 21:02 | 43.41366 | 12.65677 | 37068 ft | 426 kts | 214° |
| 2026-04-28 21:02 | 43.36228 | 12.61623 | 37079 ft | 426 kts | 214° |
| 2026-04-28 21:03 | 43.31109 | 12.57601 | 37068 ft | 426 kts | 214° |
| 2026-04-28 21:03 | 43.25953 | 12.53550 | 37078 ft | 426 kts | 214° |
| 2026-04-28 21:04 | 43.21669 | 12.50188 | 37080 ft | 427 kts | 214° |
| 2026-04-28 21:04 | 43.16508 | 12.46154 | 37093 ft | 427 kts | 213° |
| 2026-04-28 21:05 | 43.11339 | 12.42123 | 37084 ft | 427 kts | 213° |
| 2026-04-28 21:05 | 43.06173 | 12.38102 | 37082 ft | 427 kts | 213° |
| 2026-04-28 21:06 | 43.01044 | 12.34118 | 37086 ft | 426 kts | 213° |
| 2026-04-28 21:06 | 42.95935 | 12.30013 | 37071 ft | 423 kts | 221° |
| 2026-04-28 21:07 | 42.91355 | 12.25008 | 37087 ft | 422 kts | 222° |
| 2026-04-28 21:07 | 42.86779 | 12.19996 | 37093 ft | 422 kts | 222° |
| 2026-04-28 21:08 | 42.82227 | 12.15017 | 37093 ft | 422 kts | 222° |
| 2026-04-28 21:08 | 42.77647 | 12.10021 | 37090 ft | 422 kts | 222° |
| 2026-04-28 21:09 | 42.73055 | 12.05018 | 37094 ft | 422 kts | 222° |
| 2026-04-28 21:09 | 42.68469 | 12.00035 | 37101 ft | 421 kts | 222° |
| 2026-04-28 21:10 | 42.63922 | 11.95099 | 37096 ft | 421 kts | 222° |
| 2026-04-28 21:10 | 42.59334 | 11.90125 | 37085 ft | 421 kts | 222° |
| 2026-04-28 21:11 | 42.54749 | 11.85161 | 37089 ft | 421 kts | 222° |
| 2026-04-28 21:11 | 42.50192 | 11.80243 | 37091 ft | 421 kts | 222° |
| 2026-04-28 21:12 | 42.45609 | 11.75304 | 37089 ft | 421 kts | 222° |
| 2026-04-28 21:12 | 42.41021 | 11.70373 | 37072 ft | 421 kts | 221° |
| 2026-04-28 21:13 | 42.36465 | 11.65482 | 37074 ft | 421 kts | 221° |
| 2026-04-28 21:13 | 42.31880 | 11.60568 | 37078 ft | 420 kts | 221° |
| 2026-04-28 21:14 | 42.27296 | 11.55665 | 37079 ft | 420 kts | 221° |
| 2026-04-28 21:14 | 42.22713 | 11.50765 | 37083 ft | 420 kts | 221° |
| 2026-04-28 21:15 | 42.18128 | 11.45878 | 37077 ft | 420 kts | 221° |
| 2026-04-28 21:15 | 42.13529 | 11.41011 | 37080 ft | 420 kts | 221° |
| 2026-04-28 21:16 | 42.08965 | 11.36175 | 37078 ft | 420 kts | 221° |
| 2026-04-28 21:16 | 42.04371 | 11.31300 | 37068 ft | 420 kts | 221° |
| 2026-04-28 21:17 | 41.99767 | 11.26430 | 36795 ft | 421 kts | 221° |
| 2026-04-28 21:17 | 41.97465 | 11.23997 | 36532 ft | 422 kts | 220° |
| 2026-04-28 21:17 | 41.95153 | 11.21556 | 36055 ft | 423 kts | 220° |
| 2026-04-28 21:18 | 41.92865 | 11.19144 | 35563 ft | 424 kts | 220° |
| 2026-04-28 21:18 | 41.90548 | 11.16703 | 35069 ft | 423 kts | 220° |
| 2026-04-28 21:18 | 41.88234 | 11.14269 | 34587 ft | 421 kts | 220° |
| 2026-04-28 21:18 | 41.85938 | 11.11854 | 34104 ft | 419 kts | 220° |
| 2026-04-28 21:19 | 41.83650 | 11.09454 | 33561 ft | 416 kts | 219° |
| 2026-04-28 21:19 | 41.81377 | 11.07078 | 33145 ft | 412 kts | 219° |
| 2026-04-28 21:19 | 41.79117 | 11.04716 | 32886 ft | 411 kts | 219° |
| 2026-04-28 21:19 | 41.76865 | 11.02363 | 32623 ft | 410 kts | 219° |
| 2026-04-28 21:20 | 41.74624 | 11.00020 | 32364 ft | 408 kts | 219° |
| 2026-04-28 21:20 | 41.72388 | 10.97682 | 32106 ft | 406 kts | 219° |
| 2026-04-28 21:20 | 41.70197 | 10.95385 | 31857 ft | 405 kts | 219° |
| 2026-04-28 21:20 | 41.67984 | 10.93068 | 31600 ft | 403 kts | 219° |
| 2026-04-28 21:21 | 41.65776 | 10.90766 | 31335 ft | 401 kts | 219° |
| 2026-04-28 21:21 | 41.63569 | 10.88476 | 31092 ft | 400 kts | 219° |
| 2026-04-28 21:21 | 41.61372 | 10.86198 | 30845 ft | 398 kts | 219° |
| 2026-04-28 21:21 | 41.59191 | 10.83934 | 30602 ft | 397 kts | 219° |
| 2026-04-28 21:22 | 41.57016 | 10.81676 | 30357 ft | 395 kts | 219° |
| 2026-04-28 21:22 | 41.54849 | 10.79427 | 30112 ft | 394 kts | 219° |
| 2026-04-28 21:22 | 41.52689 | 10.77188 | 29832 ft | 392 kts | 219° |
| 2026-04-28 21:22 | 41.50538 | 10.74962 | 29545 ft | 390 kts | 219° |
| 2026-04-28 21:23 | 41.48421 | 10.72775 | 29266 ft | 388 kts | 219° |
| 2026-04-28 21:23 | 41.46294 | 10.70577 | 28987 ft | 386 kts | 219° |
| 2026-04-28 21:23 | 41.44179 | 10.68392 | 28709 ft | 384 kts | 219° |
| 2026-04-28 21:23 | 41.42075 | 10.66222 | 28444 ft | 382 kts | 219° |
| 2026-04-28 21:24 | 41.39979 | 10.64060 | 28178 ft | 380 kts | 219° |
| 2026-04-28 21:24 | 41.37894 | 10.61902 | 27912 ft | 379 kts | 219° |
| 2026-04-28 21:24 | 41.35817 | 10.59754 | 27645 ft | 377 kts | 219° |
| 2026-04-28 21:24 | 41.33751 | 10.57618 | 27386 ft | 375 kts | 219° |
| 2026-04-28 21:25 | 41.31715 | 10.55521 | 27131 ft | 373 kts | 219° |
| 2026-04-28 21:25 | 41.29661 | 10.53413 | 26875 ft | 372 kts | 219° |
| 2026-04-28 21:25 | 41.27618 | 10.51320 | 26615 ft | 370 kts | 219° |
| 2026-04-28 21:25 | 41.25586 | 10.49238 | 26372 ft | 366 kts | 219° |
| 2026-04-28 21:26 | 41.23580 | 10.47183 | 25978 ft | 362 kts | 218° |
| 2026-04-28 21:26 | 41.21594 | 10.45151 | 25553 ft | 359 kts | 219° |
| 2026-04-28 21:26 | 41.19627 | 10.43141 | 25114 ft | 356 kts | 218° |
| 2026-04-28 21:26 | 41.17670 | 10.41142 | 24677 ft | 353 kts | 218° |
| 2026-04-28 21:27 | 41.15752 | 10.39185 | 24227 ft | 351 kts | 218° |
| 2026-04-28 21:27 | 41.13816 | 10.37211 | 23782 ft | 350 kts | 218° |
| 2026-04-28 21:27 | 41.11890 | 10.35251 | 23277 ft | 348 kts | 218° |
| 2026-04-28 21:27 | 41.09973 | 10.33299 | 22819 ft | 345 kts | 218° |
| 2026-04-28 21:28 | 41.08076 | 10.31363 | 22372 ft | 342 kts | 218° |
| 2026-04-28 21:28 | 41.06192 | 10.29446 | 21934 ft | 340 kts | 218° |
| 2026-04-28 21:28 | 41.04323 | 10.27546 | 21493 ft | 338 kts | 218° |
| 2026-04-28 21:28 | 41.02486 | 10.25680 | 21068 ft | 336 kts | 218° |
| 2026-04-28 21:29 | 41.00637 | 10.23806 | 20634 ft | 334 kts | 218° |
| 2026-04-28 21:29 | 40.98799 | 10.21941 | 20217 ft | 332 kts | 218° |
| 2026-04-28 21:29 | 40.96966 | 10.20083 | 19801 ft | 331 kts | 218° |
| 2026-04-28 21:29 | 40.95285 | 10.18023 | 19374 ft | 328 kts | 231° |
| 2026-04-28 21:30 | 40.94082 | 10.15476 | 18946 ft | 327 kts | 246° |
| 2026-04-28 21:30 | 40.93435 | 10.12606 | 18521 ft | 326 kts | 261° |
| 2026-04-28 21:30 | 40.93378 | 10.09647 | 18063 ft | 327 kts | 276° |
| 2026-04-28 21:30 | 40.93681 | 10.06671 | 17624 ft | 326 kts | 277° |
| 2026-04-28 21:31 | 40.93985 | 10.03708 | 17196 ft | 324 kts | 277° |
| 2026-04-28 21:31 | 40.94281 | 10.00761 | 16777 ft | 322 kts | 276° |
| 2026-04-28 21:31 | 40.94571 | 9.97826 | 16349 ft | 321 kts | 276° |
| 2026-04-28 21:31 | 40.94859 | 9.94900 | 15937 ft | 320 kts | 276° |
| 2026-04-28 21:32 | 40.95002 | 9.91979 | 15521 ft | 317 kts | 265° |
| 2026-04-28 21:32 | 40.94615 | 9.89157 | 15123 ft | 315 kts | 251° |
| 2026-04-28 21:32 | 40.93700 | 9.86537 | 14722 ft | 314 kts | 237° |
| 2026-04-28 21:32 | 40.92469 | 9.84162 | 14331 ft | 313 kts | 236° |
| 2026-04-28 21:33 | 40.91230 | 9.81788 | 13928 ft | 313 kts | 236° |
| 2026-04-28 21:33 | 40.89997 | 9.79418 | 13498 ft | 311 kts | 236° |
| 2026-04-28 21:33 | 40.88797 | 9.77109 | 13279 ft | 304 kts | 236° |
| 2026-04-28 21:33 | 40.87607 | 9.74820 | 13141 ft | 293 kts | 236° |
| 2026-04-28 21:34 | 40.86484 | 9.72661 | 13010 ft | 284 kts | 236° |
| 2026-04-28 21:34 | 40.85382 | 9.70541 | 12851 ft | 276 kts | 236° |
| 2026-04-28 21:34 | 40.84301 | 9.68470 | 12632 ft | 270 kts | 236° |
| 2026-04-28 21:34 | 40.83238 | 9.66439 | 12542 ft | 268 kts | 236° |
| 2026-04-28 21:35 | 40.82176 | 9.64410 | 12388 ft | 268 kts | 236° |
| 2026-04-28 21:35 | 40.81129 | 9.62414 | 12218 ft | 268 kts | 236° |
| 2026-04-28 21:35 | 40.80072 | 9.60395 | 12050 ft | 267 kts | 236° |
| 2026-04-28 21:35 | 40.79021 | 9.58385 | 11858 ft | 265 kts | 236° |
| 2026-04-28 21:36 | 40.77975 | 9.56386 | 11698 ft | 263 kts | 235° |
| 2026-04-28 21:36 | 40.76933 | 9.54399 | 11532 ft | 263 kts | 235° |
| 2026-04-28 21:36 | 40.75894 | 9.52413 | 11351 ft | 262 kts | 236° |
| 2026-04-28 21:36 | 40.74861 | 9.50430 | 11182 ft | 262 kts | 235° |
| 2026-04-28 21:37 | 40.73828 | 9.48451 | 11005 ft | 262 kts | 235° |
| 2026-04-28 21:37 | 40.72791 | 9.46475 | 10835 ft | 262 kts | 235° |
| 2026-04-28 21:37 | 40.71755 | 9.44505 | 10663 ft | 261 kts | 235° |
| 2026-04-28 21:37 | 40.70722 | 9.42547 | 10484 ft | 260 kts | 235° |
| 2026-04-28 21:38 | 40.69709 | 9.40620 | 10329 ft | 259 kts | 235° |
| 2026-04-28 21:38 | 40.68685 | 9.38679 | 10151 ft | 258 kts | 235° |
| 2026-04-28 21:38 | 40.67661 | 9.36742 | 9984 ft | 257 kts | 235° |
| 2026-04-28 21:38 | 40.66641 | 9.34815 | 9805 ft | 256 kts | 235° |
| 2026-04-28 21:39 | 40.65630 | 9.32904 | 9626 ft | 251 kts | 235° |
| 2026-04-28 21:39 | 40.64644 | 9.31040 | 9401 ft | 244 kts | 234° |
| 2026-04-28 21:39 | 40.63677 | 9.29213 | 9290 ft | 243 kts | 234° |
| 2026-04-28 21:39 | 40.62712 | 9.27386 | 9146 ft | 243 kts | 234° |
| 2026-04-28 21:40 | 40.61748 | 9.25559 | 8988 ft | 242 kts | 234° |
| 2026-04-28 21:40 | 40.60787 | 9.23737 | 8820 ft | 242 kts | 234° |
| 2026-04-28 21:40 | 40.59831 | 9.21916 | 8662 ft | 241 kts | 236° |
| 2026-04-28 21:40 | 40.59219 | 9.19923 | 8541 ft | 245 kts | 260° |
| 2026-04-28 21:41 | 40.59360 | 9.17649 | 8415 ft | 257 kts | 288° |
| 2026-04-28 21:41 | 40.60351 | 9.15682 | 8287 ft | 263 kts | 317° |
| 2026-04-28 21:41 | 40.61981 | 9.14583 | 8091 ft | 268 kts | 348° |
| 2026-04-28 21:41 | 40.63831 | 9.14704 | 7834 ft | 270 kts | 19° |
| 2026-04-28 21:42 | 40.65488 | 9.15858 | 7549 ft | 270 kts | 32° |
| 2026-04-28 21:42 | 40.67093 | 9.17143 | 7261 ft | 270 kts | 32° |
| 2026-04-28 21:42 | 40.68686 | 9.18419 | 6978 ft | 266 kts | 32° |
| 2026-04-28 21:42 | 40.70252 | 9.19672 | 6687 ft | 261 kts | 32° |
| 2026-04-28 21:43 | 40.71768 | 9.20886 | 6420 ft | 256 kts | 32° |
| 2026-04-28 21:43 | 40.73290 | 9.22105 | 6058 ft | 254 kts | 32° |
| 2026-04-28 21:43 | 40.74765 | 9.23327 | 5733 ft | 250 kts | 40° |
| 2026-04-28 21:43 | 40.75887 | 9.25043 | 5356 ft | 247 kts | 58° |
| 2026-04-28 21:44 | 40.76836 | 9.26933 | 4976 ft | 245 kts | 58° |
| 2026-04-28 21:44 | 40.77772 | 9.28750 | 4600 ft | 233 kts | 57° |
| 2026-04-28 21:44 | 40.78679 | 9.30472 | 4247 ft | 224 kts | 57° |
| 2026-04-28 21:44 | 40.79549 | 9.32121 | 3920 ft | 215 kts | 56° |
| 2026-04-28 21:45 | 40.80397 | 9.33730 | 3624 ft | 212 kts | 56° |
| 2026-04-28 21:45 | 40.81228 | 9.35309 | 3263 ft | 207 kts | 57° |
| 2026-04-28 21:45 | 40.82037 | 9.36847 | 2950 ft | 201 kts | 57° |
| 2026-04-28 21:45 | 40.82811 | 9.38316 | 2655 ft | 189 kts | 57° |
| 2026-04-28 21:46 | 40.83542 | 9.39706 | 2369 ft | 180 kts | 56° |
| 2026-04-28 21:46 | 40.84235 | 9.41025 | 2089 ft | 169 kts | 56° |
| 2026-04-28 21:46 | 40.84878 | 9.42247 | 1856 ft | 154 kts | 57° |
| 2026-04-28 21:46 | 40.85462 | 9.43359 | 1622 ft | 145 kts | 57° |
| 2026-04-28 21:47 | 40.86027 | 9.44436 | 1400 ft | 140 kts | 56° |
| 2026-04-28 21:47 | 40.86577 | 9.45485 | 1180 ft | 138 kts | 56° |
| 2026-04-28 21:47 | 40.87121 | 9.46529 | 970 ft | 138 kts | 58° |
| 2026-04-28 21:47 | 40.87673 | 9.47568 | 727 ft | 138 kts | 55° |
| 2026-04-28 21:48 | 40.88214 | 9.48604 | 467 ft | 137 kts | 56° |
| 2026-04-28 21:48 | 40.88756 | 9.49641 | 269 ft | 137 kts | 56° |
| 2026-04-28 21:48 | 40.89290 | 9.50661 | 95 ft | 137 kts | 55° |
| 2026-04-28 21:48 | 40.89796 | 9.51632 | 38 ft | 110 kts | 55° |
| 2026-04-28 21:49 | 40.90136 | 9.52279 | 33 ft | 61 kts | 54° |
| 2026-04-28 21:49 | 40.90283 | 9.52559 | 31 ft | 20 kts | 54° |
| 2026-04-28 21:49 | 40.90392 | 9.52683 | 30 ft | 19 kts | 8° |
| 2026-04-28 21:49 | 40.90453 | 9.52568 | 31 ft | 17 kts | 275° |
| 2026-04-28 21:50 | 40.90422 | 9.52471 | 31 ft | 10 kts | 234° |
| 2026-04-28 21:50 | 40.90379 | 9.52348 | 31 ft | 22 kts | 236° |
| 2026-04-28 21:50 | 40.90276 | 9.52154 | 33 ft | 25 kts | 236° |
| 2026-04-28 21:50 | 40.90191 | 9.51990 | 35 ft | 19 kts | 236° |
| 2026-04-28 21:51 | 40.90195 | 9.51839 | 36 ft | 15 kts | 303° |
| 2026-04-28 21:51 | 40.90226 | 9.51781 | 36 ft | 7 kts | 283° |
| 2026-04-28 21:51 | 40.90207 | 9.51727 | 36 ft | 7 kts | 235° |
| 2026-04-28 21:51 | 40.90207 | 9.51700 | 36 ft | 0 kts | 313° |
| 2026-04-28 21:52 | 40.90227 | 9.51674 | 36 ft | 2 kts | 321° |
| 2026-04-28 21:52 | 40.90237 | 9.51663 | 36 ft | 2 kts | 322° |
| 2026-04-28 21:52 | 40.90245 | 9.51655 | 36 ft | 0 kts | 322° |